sensor_id;sensor_type;location;lat;lon;timestamp;temperature;humidity
26505;DHT22;19493;48.042;7.584;2024-01-16T00:01:52;-4.40;99.90
26505;DHT22;19493;48.042;7.584;2024-01-16T00:04:17;-4.50;99.90
26505;DHT22;19493;48.042;7.584;2024-01-16T00:06:43;-4.50;99.90
26505;DHT22;19493;48.042;7.584;2024-01-16T00:09:09;-4.40;99.90
26505;DHT22;19493;48.042;7.584;2024-01-16T00:11:43;-4.30;99.90
26505;DHT22;19493;48.042;7.584;2024-01-16T00:14:09;-4.30;99.90
26505;DHT22;19493;48.042;7.584;2024-01-16T00:16:47;-4.30;99.90
26505;DHT22;19493;48.042;7.584;2024-01-16T00:19:14;-4.30;99.90
26505;DHT22;19493;48.042;7.584;2024-01-16T00:21:40;-4.40;99.90
26505;DHT22;19493;48.042;7.584;2024-01-16T00:24:06;-4.40;99.90
26505;DHT22;19493;48.042;7.584;2024-01-16T00:26:32;-4.60;99.90
26505;DHT22;19493;48.042;7.584;2024-01-16T00:28:58;-4.70;99.90
26505;DHT22;19493;48.042;7.584;2024-01-16T00:31:23;-4.80;99.90
26505;DHT22;19493;48.042;7.584;2024-01-16T00:33:49;-4.80;99.90
26505;DHT22;19493;48.042;7.584;2024-01-16T00:36:15;-4.80;99.90
26505;DHT22;19493;48.042;7.584;2024-01-16T00:38:40;-4.90;99.90
26505;DHT22;19493;48.042;7.584;2024-01-16T00:41:06;-4.90;99.90
26505;DHT22;19493;48.042;7.584;2024-01-16T00:43:32;-4.80;99.90
26505;DHT22;19493;48.042;7.584;2024-01-16T00:45:58;-4.80;99.90
26505;DHT22;19493;48.042;7.584;2024-01-16T00:48:24;-4.90;99.90
26505;DHT22;19493;48.042;7.584;2024-01-16T00:50:49;-4.90;99.90
26505;DHT22;19493;48.042;7.584;2024-01-16T00:53:18;-4.90;99.90
26505;DHT22;19493;48.042;7.584;2024-01-16T00:55:44;-4.90;99.90
26505;DHT22;19493;48.042;7.584;2024-01-16T00:58:09;-4.80;99.90
26505;DHT22;19493;48.042;7.584;2024-01-16T01:00:35;-4.90;99.90
26505;DHT22;19493;48.042;7.584;2024-01-16T01:03:04;-5.00;99.90
26505;DHT22;19493;48.042;7.584;2024-01-16T01:05:29;-5.10;99.90
26505;DHT22;19493;48.042;7.584;2024-01-16T01:07:55;-5.20;99.90
26505;DHT22;19493;48.042;7.584;2024-01-16T01:10:21;-5.20;99.90
26505;DHT22;19493;48.042;7.584;2024-01-16T01:12:47;-5.20;99.90
26505;DHT22;19493;48.042;7.584;2024-01-16T01:15:12;-5.20;99.90
26505;DHT22;19493;48.042;7.584;2024-01-16T01:17:39;-5.10;99.90
26505;DHT22;19493;48.042;7.584;2024-01-16T01:20:06;-5.10;99.90
26505;DHT22;19493;48.042;7.584;2024-01-16T01:22:32;-5.00;99.90
26505;DHT22;19493;48.042;7.584;2024-01-16T01:24:57;-5.00;99.90
26505;DHT22;19493;48.042;7.584;2024-01-16T01:27:23;-5.00;99.90
26505;DHT22;19493;48.042;7.584;2024-01-16T01:29:49;-5.10;99.90
26505;DHT22;19493;48.042;7.584;2024-01-16T01:32:14;-5.10;99.90
26505;DHT22;19493;48.042;7.584;2024-01-16T01:34:42;-5.20;99.90
26505;DHT22;19493;48.042;7.584;2024-01-16T01:37:07;-5.20;99.90
26505;DHT22;19493;48.042;7.584;2024-01-16T01:39:33;-5.20;99.90
26505;DHT22;19493;48.042;7.584;2024-01-16T01:41:59;-5.10;99.90
26505;DHT22;19493;48.042;7.584;2024-01-16T01:44:24;-5.10;99.90
26505;DHT22;19493;48.042;7.584;2024-01-16T01:46:51;-5.10;99.90
26505;DHT22;19493;48.042;7.584;2024-01-16T01:49:36;-5.10;99.90
26505;DHT22;19493;48.042;7.584;2024-01-16T01:52:04;-5.30;99.90
26505;DHT22;19493;48.042;7.584;2024-01-16T01:54:31;-5.40;99.90
26505;DHT22;19493;48.042;7.584;2024-01-16T01:56:57;-5.50;99.90
26505;DHT22;19493;48.042;7.584;2024-01-16T01:59:24;-5.50;99.90
26505;DHT22;19493;48.042;7.584;2024-01-16T02:01:50;-5.50;99.90
26505;DHT22;19493;48.042;7.584;2024-01-16T02:04:19;-5.50;99.90
26505;DHT22;19493;48.042;7.584;2024-01-16T02:06:45;-5.50;99.90
26505;DHT22;19493;48.042;7.584;2024-01-16T02:09:11;-5.40;99.90
26505;DHT22;19493;48.042;7.584;2024-01-16T02:11:40;-5.30;99.90
26505;DHT22;19493;48.042;7.584;2024-01-16T02:14:06;-5.20;99.90
26505;DHT22;19493;48.042;7.584;2024-01-16T02:16:42;-5.20;99.90
26505;DHT22;19493;48.042;7.584;2024-01-16T02:19:09;-5.20;99.90
26505;DHT22;19493;48.042;7.584;2024-01-16T02:21:39;-5.20;99.90
26505;DHT22;19493;48.042;7.584;2024-01-16T02:24:06;-5.20;99.90
26505;DHT22;19493;48.042;7.584;2024-01-16T02:26:33;-5.20;99.90
26505;DHT22;19493;48.042;7.584;2024-01-16T02:29:01;-5.20;99.90
26505;DHT22;19493;48.042;7.584;2024-01-16T02:31:27;-5.30;99.90
26505;DHT22;19493;48.042;7.584;2024-01-16T02:33:53;-5.40;99.90
26505;DHT22;19493;48.042;7.584;2024-01-16T02:36:19;-5.40;99.90
26505;DHT22;19493;48.042;7.584;2024-01-16T02:38:44;-5.50;99.90
26505;DHT22;19493;48.042;7.584;2024-01-16T02:41:13;-5.50;99.90
26505;DHT22;19493;48.042;7.584;2024-01-16T02:43:39;-5.50;99.90
26505;DHT22;19493;48.042;7.584;2024-01-16T02:46:04;-5.50;99.90
26505;DHT22;19493;48.042;7.584;2024-01-16T02:48:30;-5.50;99.90
26505;DHT22;19493;48.042;7.584;2024-01-16T02:50:56;-5.60;99.90
26505;DHT22;19493;48.042;7.584;2024-01-16T02:53:21;-5.60;99.90
26505;DHT22;19493;48.042;7.584;2024-01-16T02:55:47;-5.70;99.90
26505;DHT22;19493;48.042;7.584;2024-01-16T02:58:12;-5.70;99.90
26505;DHT22;19493;48.042;7.584;2024-01-16T03:00:38;-5.70;99.90
26505;DHT22;19493;48.042;7.584;2024-01-16T03:03:04;-5.70;99.90
26505;DHT22;19493;48.042;7.584;2024-01-16T03:05:29;-5.70;99.90
26505;DHT22;19493;48.042;7.584;2024-01-16T03:07:55;-5.80;99.90
26505;DHT22;19493;48.042;7.584;2024-01-16T03:10:20;-5.70;99.90
26505;DHT22;19493;48.042;7.584;2024-01-16T03:12:46;-5.70;99.90
26505;DHT22;19493;48.042;7.584;2024-01-16T03:15:12;-5.70;99.90
26505;DHT22;19493;48.042;7.584;2024-01-16T03:17:38;-5.70;99.90
26505;DHT22;19493;48.042;7.584;2024-01-16T03:20:03;-5.70;99.90
26505;DHT22;19493;48.042;7.584;2024-01-16T03:22:29;-5.70;99.90
26505;DHT22;19493;48.042;7.584;2024-01-16T03:24:55;-5.70;99.90
26505;DHT22;19493;48.042;7.584;2024-01-16T03:27:20;-5.70;99.90
26505;DHT22;19493;48.042;7.584;2024-01-16T03:29:46;-5.60;99.90
26505;DHT22;19493;48.042;7.584;2024-01-16T03:32:11;-5.60;99.90
26505;DHT22;19493;48.042;7.584;2024-01-16T03:34:37;-5.60;99.90
26505;DHT22;19493;48.042;7.584;2024-01-16T03:37:02;-5.70;99.90
26505;DHT22;19493;48.042;7.584;2024-01-16T03:39:28;-5.70;99.90
26505;DHT22;19493;48.042;7.584;2024-01-16T03:41:54;-5.80;99.90
26505;DHT22;19493;48.042;7.584;2024-01-16T03:44:19;-5.80;99.90
26505;DHT22;19493;48.042;7.584;2024-01-16T03:46:45;-5.90;99.90
26505;DHT22;19493;48.042;7.584;2024-01-16T03:49:10;-5.90;99.90
26505;DHT22;19493;48.042;7.584;2024-01-16T03:51:36;-5.80;99.90
26505;DHT22;19493;48.042;7.584;2024-01-16T03:54:02;-5.80;99.90
26505;DHT22;19493;48.042;7.584;2024-01-16T03:56:27;-5.80;99.90
26505;DHT22;19493;48.042;7.584;2024-01-16T03:58:53;-5.80;99.90
26505;DHT22;19493;48.042;7.584;2024-01-16T04:01:18;-5.80;99.90
26505;DHT22;19493;48.042;7.584;2024-01-16T04:03:54;-5.80;99.90
26505;DHT22;19493;48.042;7.584;2024-01-16T04:06:20;-5.80;99.90
26505;DHT22;19493;48.042;7.584;2024-01-16T04:08:45;-5.80;99.90
26505;DHT22;19493;48.042;7.584;2024-01-16T04:11:14;-5.70;99.90
26505;DHT22;19493;48.042;7.584;2024-01-16T04:13:40;-5.70;99.90
26505;DHT22;19493;48.042;7.584;2024-01-16T04:16:06;-5.60;99.90
26505;DHT22;19493;48.042;7.584;2024-01-16T04:18:40;-5.60;99.90
26505;DHT22;19493;48.042;7.584;2024-01-16T04:21:06;-5.60;99.90
26505;DHT22;19493;48.042;7.584;2024-01-16T04:23:32;-5.60;99.90
26505;DHT22;19493;48.042;7.584;2024-01-16T04:25:58;-5.50;99.90
26505;DHT22;19493;48.042;7.584;2024-01-16T04:28:23;-5.60;99.90
26505;DHT22;19493;48.042;7.584;2024-01-16T04:30:49;-5.50;99.90
26505;DHT22;19493;48.042;7.584;2024-01-16T04:33:15;-5.50;99.90
26505;DHT22;19493;48.042;7.584;2024-01-16T04:35:40;-5.50;99.90
26505;DHT22;19493;48.042;7.584;2024-01-16T04:38:06;-5.50;99.90
26505;DHT22;19493;48.042;7.584;2024-01-16T04:40:33;-5.50;99.90
26505;DHT22;19493;48.042;7.584;2024-01-16T04:42:59;-5.60;99.90
26505;DHT22;19493;48.042;7.584;2024-01-16T04:45:25;-5.60;99.90
26505;DHT22;19493;48.042;7.584;2024-01-16T04:47:50;-5.60;99.90
26505;DHT22;19493;48.042;7.584;2024-01-16T04:50:16;-5.60;99.90
26505;DHT22;19493;48.042;7.584;2024-01-16T04:52:42;-5.60;99.90
26505;DHT22;19493;48.042;7.584;2024-01-16T04:55:08;-5.50;99.90
26505;DHT22;19493;48.042;7.584;2024-01-16T04:57:34;-5.50;99.90
26505;DHT22;19493;48.042;7.584;2024-01-16T05:00:00;-5.60;99.90
26505;DHT22;19493;48.042;7.584;2024-01-16T05:02:25;-5.60;99.90
26505;DHT22;19493;48.042;7.584;2024-01-16T05:04:51;-5.60;99.90
26505;DHT22;19493;48.042;7.584;2024-01-16T05:07:18;-5.60;99.90
26505;DHT22;19493;48.042;7.584;2024-01-16T05:09:46;-5.60;99.90
26505;DHT22;19493;48.042;7.584;2024-01-16T05:12:12;-5.60;99.90
26505;DHT22;19493;48.042;7.584;2024-01-16T05:14:37;-5.60;99.90
26505;DHT22;19493;48.042;7.584;2024-01-16T05:17:03;-5.60;99.90
26505;DHT22;19493;48.042;7.584;2024-01-16T05:19:28;-5.60;99.90
26505;DHT22;19493;48.042;7.584;2024-01-16T05:21:54;-5.60;99.90
26505;DHT22;19493;48.042;7.584;2024-01-16T05:24:20;-5.60;99.90
26505;DHT22;19493;48.042;7.584;2024-01-16T05:26:45;-5.70;99.90
26505;DHT22;19493;48.042;7.584;2024-01-16T05:29:11;-5.70;99.90
26505;DHT22;19493;48.042;7.584;2024-01-16T05:31:43;-5.70;99.90
26505;DHT22;19493;48.042;7.584;2024-01-16T05:34:12;-5.80;99.90
26505;DHT22;19493;48.042;7.584;2024-01-16T05:36:38;-5.80;99.90
26505;DHT22;19493;48.042;7.584;2024-01-16T05:39:03;-5.80;99.90
26505;DHT22;19493;48.042;7.584;2024-01-16T05:41:35;-5.80;99.90
26505;DHT22;19493;48.042;7.584;2024-01-16T05:44:01;-5.80;99.90
26505;DHT22;19493;48.042;7.584;2024-01-16T05:46:29;-5.80;99.90
26505;DHT22;19493;48.042;7.584;2024-01-16T05:48:55;-5.80;99.90
26505;DHT22;19493;48.042;7.584;2024-01-16T05:51:21;-5.90;99.90
26505;DHT22;19493;48.042;7.584;2024-01-16T05:53:46;-5.90;99.90
26505;DHT22;19493;48.042;7.584;2024-01-16T05:56:12;-5.90;99.90
26505;DHT22;19493;48.042;7.584;2024-01-16T05:58:37;-6.00;99.90
26505;DHT22;19493;48.042;7.584;2024-01-16T06:01:05;-6.00;99.90
26505;DHT22;19493;48.042;7.584;2024-01-16T06:03:31;-6.00;99.90
26505;DHT22;19493;48.042;7.584;2024-01-16T06:05:56;-6.00;99.90
26505;DHT22;19493;48.042;7.584;2024-01-16T06:08:22;-6.00;99.90
26505;DHT22;19493;48.042;7.584;2024-01-16T06:10:47;-6.00;99.90
26505;DHT22;19493;48.042;7.584;2024-01-16T06:13:13;-6.00;99.90
26505;DHT22;19493;48.042;7.584;2024-01-16T06:15:38;-6.00;99.90
26505;DHT22;19493;48.042;7.584;2024-01-16T06:18:04;-6.10;99.90
26505;DHT22;19493;48.042;7.584;2024-01-16T06:20:30;-6.10;99.90
26505;DHT22;19493;48.042;7.584;2024-01-16T06:22:56;-6.10;99.90
26505;DHT22;19493;48.042;7.584;2024-01-16T06:25:22;-6.10;99.90
26505;DHT22;19493;48.042;7.584;2024-01-16T06:27:47;-6.20;99.90
26505;DHT22;19493;48.042;7.584;2024-01-16T06:30:13;-6.20;99.90
26505;DHT22;19493;48.042;7.584;2024-01-16T06:32:38;-6.20;99.90
26505;DHT22;19493;48.042;7.584;2024-01-16T06:35:04;-6.20;99.90
26505;DHT22;19493;48.042;7.584;2024-01-16T06:37:31;-6.20;99.90
26505;DHT22;19493;48.042;7.584;2024-01-16T06:39:56;-6.30;99.90
26505;DHT22;19493;48.042;7.584;2024-01-16T06:42:22;-6.30;99.90
26505;DHT22;19493;48.042;7.584;2024-01-16T06:44:48;-6.30;99.90
26505;DHT22;19493;48.042;7.584;2024-01-16T06:47:13;-6.20;99.90
26505;DHT22;19493;48.042;7.584;2024-01-16T06:49:39;-6.20;99.90
26505;DHT22;19493;48.042;7.584;2024-01-16T06:52:05;-6.20;99.90
26505;DHT22;19493;48.042;7.584;2024-01-16T06:54:30;-6.20;99.90
26505;DHT22;19493;48.042;7.584;2024-01-16T06:56:56;-6.20;99.90
26505;DHT22;19493;48.042;7.584;2024-01-16T06:59:21;-6.20;99.90
26505;DHT22;19493;48.042;7.584;2024-01-16T07:01:47;-6.30;99.90
26505;DHT22;19493;48.042;7.584;2024-01-16T07:04:13;-6.30;99.90
26505;DHT22;19493;48.042;7.584;2024-01-16T07:06:40;-6.30;99.90
26505;DHT22;19493;48.042;7.584;2024-01-16T07:09:05;-6.40;99.90
26505;DHT22;19493;48.042;7.584;2024-01-16T07:11:31;-6.40;99.90
26505;DHT22;19493;48.042;7.584;2024-01-16T07:13:56;-6.30;99.90
26505;DHT22;19493;48.042;7.584;2024-01-16T07:16:22;-6.30;99.90
26505;DHT22;19493;48.042;7.584;2024-01-16T07:18:48;-6.30;99.90
26505;DHT22;19493;48.042;7.584;2024-01-16T07:21:20;-6.30;99.90
26505;DHT22;19493;48.042;7.584;2024-01-16T07:23:46;-6.30;99.90
26505;DHT22;19493;48.042;7.584;2024-01-16T07:26:12;-6.30;99.90
26505;DHT22;19493;48.042;7.584;2024-01-16T07:28:38;-6.30;99.90
26505;DHT22;19493;48.042;7.584;2024-01-16T07:31:03;-6.40;99.90
26505;DHT22;19493;48.042;7.584;2024-01-16T07:33:29;-6.40;99.90
26505;DHT22;19493;48.042;7.584;2024-01-16T07:35:55;-6.30;99.90
26505;DHT22;19493;48.042;7.584;2024-01-16T07:38:20;-6.20;99.90
26505;DHT22;19493;48.042;7.584;2024-01-16T07:40:46;-6.10;99.90
26505;DHT22;19493;48.042;7.584;2024-01-16T07:43:12;-6.00;99.90
26505;DHT22;19493;48.042;7.584;2024-01-16T07:45:37;-5.90;99.90
26505;DHT22;19493;48.042;7.584;2024-01-16T07:48:03;-5.80;99.90
26505;DHT22;19493;48.042;7.584;2024-01-16T07:50:29;-5.70;99.90
26505;DHT22;19493;48.042;7.584;2024-01-16T07:52:55;-5.70;99.90
26505;DHT22;19493;48.042;7.584;2024-01-16T07:55:21;-5.60;99.90
26505;DHT22;19493;48.042;7.584;2024-01-16T07:57:46;-5.50;99.90
26505;DHT22;19493;48.042;7.584;2024-01-16T08:00:12;-5.50;99.90
26505;DHT22;19493;48.042;7.584;2024-01-16T08:02:38;-5.40;99.90
26505;DHT22;19493;48.042;7.584;2024-01-16T08:05:04;-5.40;99.90
26505;DHT22;19493;48.042;7.584;2024-01-16T08:07:30;-5.30;99.90
26505;DHT22;19493;48.042;7.584;2024-01-16T08:09:55;-5.20;99.90
26505;DHT22;19493;48.042;7.584;2024-01-16T08:12:21;-5.10;99.90
26505;DHT22;19493;48.042;7.584;2024-01-16T08:14:47;-5.00;99.90
26505;DHT22;19493;48.042;7.584;2024-01-16T08:17:12;-4.90;99.90
26505;DHT22;19493;48.042;7.584;2024-01-16T08:19:38;-4.80;99.90
26505;DHT22;19493;48.042;7.584;2024-01-16T08:22:04;-4.70;99.90
26505;DHT22;19493;48.042;7.584;2024-01-16T08:24:29;-4.60;99.90
26505;DHT22;19493;48.042;7.584;2024-01-16T08:26:55;-4.50;99.90
26505;DHT22;19493;48.042;7.584;2024-01-16T08:29:23;-4.40;99.90
26505;DHT22;19493;48.042;7.584;2024-01-16T08:31:49;-4.20;99.90
26505;DHT22;19493;48.042;7.584;2024-01-16T08:34:15;-4.10;99.90
26505;DHT22;19493;48.042;7.584;2024-01-16T08:36:41;-4.00;99.90
26505;DHT22;19493;48.042;7.584;2024-01-16T08:39:07;-3.90;99.90
26505;DHT22;19493;48.042;7.584;2024-01-16T08:41:32;-3.70;99.90
26505;DHT22;19493;48.042;7.584;2024-01-16T08:43:58;-3.60;99.90
26505;DHT22;19493;48.042;7.584;2024-01-16T08:46:24;-3.50;99.90
26505;DHT22;19493;48.042;7.584;2024-01-16T08:48:49;-3.30;99.90
26505;DHT22;19493;48.042;7.584;2024-01-16T08:51:15;-3.20;99.90
26505;DHT22;19493;48.042;7.584;2024-01-16T08:53:40;-3.10;99.90
26505;DHT22;19493;48.042;7.584;2024-01-16T08:56:07;-3.00;99.90
26505;DHT22;19493;48.042;7.584;2024-01-16T08:58:33;-2.90;99.90
26505;DHT22;19493;48.042;7.584;2024-01-16T09:01:04;-2.80;99.90
26505;DHT22;19493;48.042;7.584;2024-01-16T09:03:33;-2.30;99.90
26505;DHT22;19493;48.042;7.584;2024-01-16T09:05:59;-0.50;99.90
26505;DHT22;19493;48.042;7.584;2024-01-16T09:08:26;1.60;99.90
26505;DHT22;19493;48.042;7.584;2024-01-16T09:10:52;3.20;99.90
26505;DHT22;19493;48.042;7.584;2024-01-16T09:13:18;4.50;99.90
26505;DHT22;19493;48.042;7.584;2024-01-16T09:15:43;5.60;99.80
26505;DHT22;19493;48.042;7.584;2024-01-16T09:18:09;6.20;94.50
26505;DHT22;19493;48.042;7.584;2024-01-16T09:20:34;6.70;92.70
26505;DHT22;19493;48.042;7.584;2024-01-16T09:23:00;7.10;88.80
26505;DHT22;19493;48.042;7.584;2024-01-16T09:25:26;7.70;83.70
26505;DHT22;19493;48.042;7.584;2024-01-16T09:27:53;8.50;79.20
26505;DHT22;19493;48.042;7.584;2024-01-16T09:30:18;9.40;76.30
26505;DHT22;19493;48.042;7.584;2024-01-16T09:32:44;10.20;72.00
26505;DHT22;19493;48.042;7.584;2024-01-16T09:35:10;10.90;69.30
26505;DHT22;19493;48.042;7.584;2024-01-16T09:37:36;12.50;62.30
26505;DHT22;19493;48.042;7.584;2024-01-16T09:40:02;13.00;57.60
26505;DHT22;19493;48.042;7.584;2024-01-16T09:42:30;13.20;57.50
26505;DHT22;19493;48.042;7.584;2024-01-16T09:44:56;13.00;54.30
26505;DHT22;19493;48.042;7.584;2024-01-16T09:47:24;13.60;52.40
26505;DHT22;19493;48.042;7.584;2024-01-16T09:49:50;14.00;51.40
26505;DHT22;19493;48.042;7.584;2024-01-16T09:52:16;14.30;49.10
26505;DHT22;19493;48.042;7.584;2024-01-16T09:54:41;14.00;48.70
26505;DHT22;19493;48.042;7.584;2024-01-16T09:57:07;13.00;49.70
26505;DHT22;19493;48.042;7.584;2024-01-16T09:59:36;11.70;51.20
26505;DHT22;19493;48.042;7.584;2024-01-16T10:02:08;9.80;54.40
26505;DHT22;19493;48.042;7.584;2024-01-16T10:04:34;9.20;57.30
26505;DHT22;19493;48.042;7.584;2024-01-16T10:07:01;9.50;58.20
26505;DHT22;19493;48.042;7.584;2024-01-16T10:09:27;10.20;56.90
26505;DHT22;19493;48.042;7.584;2024-01-16T10:11:53;10.30;56.20
26505;DHT22;19493;48.042;7.584;2024-01-16T10:14:19;10.10;56.20
26505;DHT22;19493;48.042;7.584;2024-01-16T10:17:01;9.90;57.10
26505;DHT22;19493;48.042;7.584;2024-01-16T10:19:51;9.90;58.00
26505;DHT22;19493;48.042;7.584;2024-01-16T10:22:22;11.10;55.70
26505;DHT22;19493;48.042;7.584;2024-01-16T10:25:05;11.70;54.50
26505;DHT22;19493;48.042;7.584;2024-01-16T10:27:31;10.90;54.50
26505;DHT22;19493;48.042;7.584;2024-01-16T10:29:58;9.70;57.00
26505;DHT22;19493;48.042;7.584;2024-01-16T10:32:28;9.10;57.70
26505;DHT22;19493;48.042;7.584;2024-01-16T10:35:11;9.70;58.40
26505;DHT22;19493;48.042;7.584;2024-01-16T10:37:50;9.90;58.00
26505;DHT22;19493;48.042;7.584;2024-01-16T10:40:17;10.80;57.10
26505;DHT22;19493;48.042;7.584;2024-01-16T10:42:44;12.50;55.20
26505;DHT22;19493;48.042;7.584;2024-01-16T10:45:17;13.50;50.90
26505;DHT22;19493;48.042;7.584;2024-01-16T10:47:47;12.60;50.50
26505;DHT22;19493;48.042;7.584;2024-01-16T10:50:13;12.50;50.60
26505;DHT22;19493;48.042;7.584;2024-01-16T10:52:48;12.10;51.10
26505;DHT22;19493;48.042;7.584;2024-01-16T10:55:21;12.90;50.70
26505;DHT22;19493;48.042;7.584;2024-01-16T10:57:48;12.80;49.20
26505;DHT22;19493;48.042;7.584;2024-01-16T11:00:18;12.50;50.10
26505;DHT22;19493;48.042;7.584;2024-01-16T11:02:50;12.70;49.90
26505;DHT22;19493;48.042;7.584;2024-01-16T11:05:17;12.10;50.20
26505;DHT22;19493;48.042;7.584;2024-01-16T11:07:44;12.30;50.30
26505;DHT22;19493;48.042;7.584;2024-01-16T11:10:10;12.80;50.00
26505;DHT22;19493;48.042;7.584;2024-01-16T11:12:38;13.40;49.00
26505;DHT22;19493;48.042;7.584;2024-01-16T11:15:06;14.70;46.60
26505;DHT22;19493;48.042;7.584;2024-01-16T11:17:33;15.40;45.60
26505;DHT22;19493;48.042;7.584;2024-01-16T11:20:01;16.20;44.10
26505;DHT22;19493;48.042;7.584;2024-01-16T11:22:27;15.60;43.30
26505;DHT22;19493;48.042;7.584;2024-01-16T11:25:12;14.50;44.50
26505;DHT22;19493;48.042;7.584;2024-01-16T11:27:39;12.90;47.80
26505;DHT22;19493;48.042;7.584;2024-01-16T11:30:06;13.10;48.10
26505;DHT22;19493;48.042;7.584;2024-01-16T11:32:39;12.00;49.40
26505;DHT22;19493;48.042;7.584;2024-01-16T11:35:10;10.80;51.60
26505;DHT22;19493;48.042;7.584;2024-01-16T11:37:41;10.20;53.10
26505;DHT22;19493;48.042;7.584;2024-01-16T11:42:52;13.00;51.80
26505;DHT22;19493;48.042;7.584;2024-01-16T11:50:37;16.40;44.30
26505;DHT22;19493;48.042;7.584;2024-01-16T11:53:03;17.50;42.70
26505;DHT22;19493;48.042;7.584;2024-01-16T12:00:47;20.20;37.80
26505;DHT22;19493;48.042;7.584;2024-01-16T12:03:19;20.20;37.50
26505;DHT22;19493;48.042;7.584;2024-01-16T12:05:57;19.20;38.20
26505;DHT22;19493;48.042;7.584;2024-01-16T12:08:23;19.80;37.60
26505;DHT22;19493;48.042;7.584;2024-01-16T12:10:48;19.20;37.20
26505;DHT22;19493;48.042;7.584;2024-01-16T12:13:14;19.50;37.30
26505;DHT22;19493;48.042;7.584;2024-01-16T12:15:40;19.90;36.70
26505;DHT22;19493;48.042;7.584;2024-01-16T12:18:06;20.60;36.00
26505;DHT22;19493;48.042;7.584;2024-01-16T12:20:34;20.70;35.50
26505;DHT22;19493;48.042;7.584;2024-01-16T12:23:04;20.90;35.10
26505;DHT22;19493;48.042;7.584;2024-01-16T12:25:31;21.50;34.50
26505;DHT22;19493;48.042;7.584;2024-01-16T12:27:59;21.20;34.00
26505;DHT22;19493;48.042;7.584;2024-01-16T12:30:35;20.60;35.20
26505;DHT22;19493;48.042;7.584;2024-01-16T12:33:11;20.40;35.30
26505;DHT22;19493;48.042;7.584;2024-01-16T12:35:42;20.50;34.90
26505;DHT22;19493;48.042;7.584;2024-01-16T12:38:09;20.90;35.10
26505;DHT22;19493;48.042;7.584;2024-01-16T12:40:36;21.10;34.20
26505;DHT22;19493;48.042;7.584;2024-01-16T12:43:05;20.90;33.50
26505;DHT22;19493;48.042;7.584;2024-01-16T12:45:32;17.40;35.80
26505;DHT22;19493;48.042;7.584;2024-01-16T12:48:00;13.70;40.90
26505;DHT22;19493;48.042;7.584;2024-01-16T12:50:28;11.00;45.70
26505;DHT22;19493;48.042;7.584;2024-01-16T12:53:01;9.00;50.10
26505;DHT22;19493;48.042;7.584;2024-01-16T12:55:27;7.70;53.50
26505;DHT22;19493;48.042;7.584;2024-01-16T12:58:16;6.80;56.30
26505;DHT22;19493;48.042;7.584;2024-01-16T13:00:46;5.80;59.50
26505;DHT22;19493;48.042;7.584;2024-01-16T13:03:22;5.20;61.40
26505;DHT22;19493;48.042;7.584;2024-01-16T13:05:59;4.80;63.50
26505;DHT22;19493;48.042;7.584;2024-01-16T13:08:26;4.50;64.70
26505;DHT22;19493;48.042;7.584;2024-01-16T13:11:05;4.10;66.20
26505;DHT22;19493;48.042;7.584;2024-01-16T13:13:32;3.70;67.90
26505;DHT22;19493;48.042;7.584;2024-01-16T13:15:58;3.50;69.60
26505;DHT22;19493;48.042;7.584;2024-01-16T13:18:28;3.20;71.20
26505;DHT22;19493;48.042;7.584;2024-01-16T13:20:56;3.10;72.20
26505;DHT22;19493;48.042;7.584;2024-01-16T13:23:23;2.90;72.50
26505;DHT22;19493;48.042;7.584;2024-01-16T13:25:50;2.80;73.70
26505;DHT22;19493;48.042;7.584;2024-01-16T13:28:17;2.60;74.90
26505;DHT22;19493;48.042;7.584;2024-01-16T13:30:44;2.40;75.30
26505;DHT22;19493;48.042;7.584;2024-01-16T13:33:10;2.10;75.60
26505;DHT22;19493;48.042;7.584;2024-01-16T13:35:39;2.00;76.80
26505;DHT22;19493;48.042;7.584;2024-01-16T13:38:05;1.80;77.80
26505;DHT22;19493;48.042;7.584;2024-01-16T13:40:31;1.70;79.00
26505;DHT22;19493;48.042;7.584;2024-01-16T13:42:57;1.60;80.40
26505;DHT22;19493;48.042;7.584;2024-01-16T13:45:22;1.50;83.30
26505;DHT22;19493;48.042;7.584;2024-01-16T13:47:48;1.30;85.30
26505;DHT22;19493;48.042;7.584;2024-01-16T13:50:14;1.20;88.50
26505;DHT22;19493;48.042;7.584;2024-01-16T13:52:39;1.10;90.50
26505;DHT22;19493;48.042;7.584;2024-01-16T13:55:06;1.00;91.90
26505;DHT22;19493;48.042;7.584;2024-01-16T13:57:32;0.90;93.50
26505;DHT22;19493;48.042;7.584;2024-01-16T14:00:00;0.80;95.50
26505;DHT22;19493;48.042;7.584;2024-01-16T14:02:26;0.70;97.80
26505;DHT22;19493;48.042;7.584;2024-01-16T14:04:51;0.70;99.50
26505;DHT22;19493;48.042;7.584;2024-01-16T14:07:17;0.60;99.90
26505;DHT22;19493;48.042;7.584;2024-01-16T14:09:42;0.60;99.90
26505;DHT22;19493;48.042;7.584;2024-01-16T14:12:08;0.50;99.90
26505;DHT22;19493;48.042;7.584;2024-01-16T14:14:34;0.50;99.90
26505;DHT22;19493;48.042;7.584;2024-01-16T14:17:01;0.50;99.90
26505;DHT22;19493;48.042;7.584;2024-01-16T14:19:27;0.40;99.90
26505;DHT22;19493;48.042;7.584;2024-01-16T14:21:55;0.40;99.90
26505;DHT22;19493;48.042;7.584;2024-01-16T14:24:20;0.30;99.90
26505;DHT22;19493;48.042;7.584;2024-01-16T14:26:47;0.20;99.90
26505;DHT22;19493;48.042;7.584;2024-01-16T14:29:12;0.20;99.90
26505;DHT22;19493;48.042;7.584;2024-01-16T14:31:40;0.10;99.90
26505;DHT22;19493;48.042;7.584;2024-01-16T14:34:10;0.10;99.90
26505;DHT22;19493;48.042;7.584;2024-01-16T14:36:39;0.00;99.90
26505;DHT22;19493;48.042;7.584;2024-01-16T14:39:05;0.00;99.90
26505;DHT22;19493;48.042;7.584;2024-01-16T14:41:31;0.00;99.90
26505;DHT22;19493;48.042;7.584;2024-01-16T14:43:57;0.00;99.90
26505;DHT22;19493;48.042;7.584;2024-01-16T14:46:23;0.00;99.90
26505;DHT22;19493;48.042;7.584;2024-01-16T14:48:48;-0.10;99.90
26505;DHT22;19493;48.042;7.584;2024-01-16T14:51:14;-0.10;99.90
26505;DHT22;19493;48.042;7.584;2024-01-16T14:53:39;-0.10;99.90
26505;DHT22;19493;48.042;7.584;2024-01-16T14:56:05;-0.20;99.90
26505;DHT22;19493;48.042;7.584;2024-01-16T14:58:31;-0.30;99.90
26505;DHT22;19493;48.042;7.584;2024-01-16T15:00:57;-0.40;99.90
26505;DHT22;19493;48.042;7.584;2024-01-16T15:03:24;-0.40;99.90
26505;DHT22;19493;48.042;7.584;2024-01-16T15:05:50;-0.50;99.90
26505;DHT22;19493;48.042;7.584;2024-01-16T15:08:17;-0.60;99.90
26505;DHT22;19493;48.042;7.584;2024-01-16T15:10:43;-0.70;99.90
26505;DHT22;19493;48.042;7.584;2024-01-16T15:13:09;-0.70;99.90
26505;DHT22;19493;48.042;7.584;2024-01-16T15:15:34;-0.70;99.90
26505;DHT22;19493;48.042;7.584;2024-01-16T15:18:01;-0.60;99.90
26505;DHT22;19493;48.042;7.584;2024-01-16T15:20:27;-0.50;99.90
26505;DHT22;19493;48.042;7.584;2024-01-16T15:22:53;-0.50;99.90
26505;DHT22;19493;48.042;7.584;2024-01-16T15:25:19;-0.60;99.90
26505;DHT22;19493;48.042;7.584;2024-01-16T15:27:48;-0.70;99.90
26505;DHT22;19493;48.042;7.584;2024-01-16T15:30:20;-0.70;99.90
26505;DHT22;19493;48.042;7.584;2024-01-16T15:32:49;-0.70;99.90
26505;DHT22;19493;48.042;7.584;2024-01-16T15:35:15;-0.80;99.90
26505;DHT22;19493;48.042;7.584;2024-01-16T15:37:41;-0.80;99.90
26505;DHT22;19493;48.042;7.584;2024-01-16T15:40:08;-0.80;99.90
26505;DHT22;19493;48.042;7.584;2024-01-16T15:42:34;-1.00;99.90
26505;DHT22;19493;48.042;7.584;2024-01-16T15:45:05;-1.10;99.90